Detall de PIREP

Printer-friendly versionPDF version

[2008/10/10 21:01:00]
Flight IATA:CT2100
Pilot Number:011
Company ICAO:CAT
Aircraft Type:F28/A
PAX:85
Departing Airport: LEVC
Destination Airport: LEAS
Alternate Airport:LEMD
Online: VATSIM
Route:CENTA/N380F230 A33 PRADO/N430F350 UN733 ZMR UM30 VES
Flight Level:FL310
No Slew and time accel
No pause
Crash detect
Detect pilot in Cockpit between each 30 and 45 minutes
21:01 Zero fuel Weight: 60736 Lbs, Fuel Weight: 10286 Lbs
21:01 VATSIM:LEVC 102030Z 05012KT 9999 -RA SCT015 BKN020 19/17 Q1027 NOSIG
21:01 VATSIM:LEAS 102030Z 00000KT CAVOK 16/12 Q1024 NOSIG
21:05 Parking Brakes off
21:18 Take-off
21:18 Take off Weight: 70307 Lbs
21:18 Wind: 063 @ 007 Knots Heading: 114
21:18 POS N39 29 15 W000 28 38
21:18 Flaps:2 at 168 Knots
21:18 Gear Up: 173 Knots
21:18 Flaps:1 at 230 Knots
21:18 Flaps:0 at 236 Knots
21:33 Wind:079@038 Knots Heading: 302 Ground Speed:
389 Knots Altitude 28031 ft
21:38 TOC
21:38 Fuel Weight: 7147 Lb
21:48 Wind:086@031 Knots Heading: 299 Ground Speed: 475 Knots Altitude 31000 ft
22:00 TOD
22:00 Fuel Weight: 5434 Lb
22:03 Wind:076@020 Knots Heading: 000 Ground Speed: 437 Knots Altitude 28950 ft
22:18 Wind:219@007 Knots Heading: 052 Ground Speed: 254 Knots Altitude 7952 ft
22:20 Flaps:1 at 235 Knots
22:21 Flaps:2 at 212 Knots
22:21 Flaps:3 at 190 Knots
22:24 Flaps:4 at 162 Knots
22:24 Gear Down: 155 Knots
22:25 Flaps:5 at 143 Knots
22:26 TouchDown:Rate -279 ft/min Speed: 117 Knots
22:26 VATSIM:LEAS 102130Z 22003KT CAVOK 14/11 Q1024 NOSIG
22:26 Land
22:26 Wind:225@003 Knots
22:26 Heading: 287
22:26 Flight Duration: 01:08
22:26 Landing Weight: 65111 Lbs
22:26 POS N43 33 47 W006 01 59
22:31 Parking brakes on
22:31 Block to Block Duration: 01:26
22:31 Final Fuel: 4133 Lbls

22:31 Spent Fuel: 6153 Lbls
22:31 Flight Length: 108 NM
22:31 TOD Land Length: 25 NM

Exportar CSV

Powered by Drupal - Modified by Danger4k